sensor_id;sensor_type;location;lat;lon;timestamp;P1;durP1;ratioP1;P2;durP2;ratioP2
22768;SDS011;13001;51.968;5.918;2024-03-07T00:01:19;70.37;;;46.37;;
22768;SDS011;13001;51.968;5.918;2024-03-07T00:03:47;71.22;;;46.63;;
22768;SDS011;13001;51.968;5.918;2024-03-07T00:06:15;73.20;;;47.23;;
22768;SDS011;13001;51.968;5.918;2024-03-07T00:08:43;75.03;;;46.88;;
22768;SDS011;13001;51.968;5.918;2024-03-07T00:11:10;74.12;;;47.43;;
22768;SDS011;13001;51.968;5.918;2024-03-07T00:13:38;74.20;;;45.50;;
22768;SDS011;13001;51.968;5.918;2024-03-07T00:16:06;76.00;;;46.53;;
22768;SDS011;13001;51.968;5.918;2024-03-07T00:18:34;81.15;;;49.27;;
22768;SDS011;13001;51.968;5.918;2024-03-07T00:21:02;75.78;;;48.48;;
22768;SDS011;13001;51.968;5.918;2024-03-07T00:23:30;76.85;;;47.60;;
22768;SDS011;13001;51.968;5.918;2024-03-07T00:25:59;72.30;;;46.58;;
22768;SDS011;13001;51.968;5.918;2024-03-07T00:28:28;80.73;;;49.77;;
22768;SDS011;13001;51.968;5.918;2024-03-07T00:30:58;73.55;;;48.28;;
22768;SDS011;13001;51.968;5.918;2024-03-07T00:33:25;75.35;;;47.35;;
22768;SDS011;13001;51.968;5.918;2024-03-07T00:35:53;76.20;;;49.63;;
22768;SDS011;13001;51.968;5.918;2024-03-07T00:38:20;79.82;;;49.58;;
22768;SDS011;13001;51.968;5.918;2024-03-07T00:40:48;79.90;;;49.23;;
22768;SDS011;13001;51.968;5.918;2024-03-07T00:43:16;79.85;;;49.25;;
22768;SDS011;13001;51.968;5.918;2024-03-07T00:45:43;76.37;;;49.30;;
22768;SDS011;13001;51.968;5.918;2024-03-07T00:48:12;75.22;;;49.55;;
22768;SDS011;13001;51.968;5.918;2024-03-07T00:50:40;78.20;;;50.43;;
22768;SDS011;13001;51.968;5.918;2024-03-07T00:53:08;80.45;;;49.48;;
22768;SDS011;13001;51.968;5.918;2024-03-07T00:55:36;74.97;;;48.73;;
22768;SDS011;13001;51.968;5.918;2024-03-07T00:58:04;82.57;;;50.20;;
22768;SDS011;13001;51.968;5.918;2024-03-07T01:00:32;79.05;;;50.12;;
22768;SDS011;13001;51.968;5.918;2024-03-07T01:02:59;80.38;;;49.80;;
22768;SDS011;13001;51.968;5.918;2024-03-07T01:08:14;79.80;;;50.10;;
22768;SDS011;13001;51.968;5.918;2024-03-07T01:10:41;76.53;;;49.63;;
22768;SDS011;13001;51.968;5.918;2024-03-07T01:13:09;81.60;;;50.05;;
22768;SDS011;13001;51.968;5.918;2024-03-07T01:15:38;82.22;;;50.63;;
22768;SDS011;13001;51.968;5.918;2024-03-07T01:18:07;77.37;;;50.52;;
22768;SDS011;13001;51.968;5.918;2024-03-07T01:20:34;79.67;;;50.15;;
22768;SDS011;13001;51.968;5.918;2024-03-07T01:23:02;77.82;;;49.80;;
22768;SDS011;13001;51.968;5.918;2024-03-07T01:25:30;81.72;;;51.80;;
22768;SDS011;13001;51.968;5.918;2024-03-07T01:28:02;79.37;;;50.78;;
22768;SDS011;13001;51.968;5.918;2024-03-07T01:30:30;74.72;;;50.00;;
22768;SDS011;13001;51.968;5.918;2024-03-07T01:32:57;80.85;;;50.88;;
22768;SDS011;13001;51.968;5.918;2024-03-07T01:35:25;78.85;;;49.23;;
22768;SDS011;13001;51.968;5.918;2024-03-07T01:37:52;76.87;;;49.67;;
22768;SDS011;13001;51.968;5.918;2024-03-07T01:40:21;80.20;;;50.50;;
22768;SDS011;13001;51.968;5.918;2024-03-07T01:42:52;76.67;;;50.25;;
22768;SDS011;13001;51.968;5.918;2024-03-07T01:45:20;77.55;;;50.43;;
22768;SDS011;13001;51.968;5.918;2024-03-07T01:47:48;78.55;;;50.10;;
22768;SDS011;13001;51.968;5.918;2024-03-07T01:50:15;77.95;;;49.53;;
22768;SDS011;13001;51.968;5.918;2024-03-07T01:52:43;78.85;;;50.78;;
22768;SDS011;13001;51.968;5.918;2024-03-07T01:55:11;83.22;;;50.33;;
22768;SDS011;13001;51.968;5.918;2024-03-07T01:57:40;79.72;;;50.78;;
22768;SDS011;13001;51.968;5.918;2024-03-07T02:00:07;79.95;;;50.85;;
22768;SDS011;13001;51.968;5.918;2024-03-07T02:02:36;80.50;;;51.28;;
22768;SDS011;13001;51.968;5.918;2024-03-07T02:05:04;84.95;;;50.83;;
22768;SDS011;13001;51.968;5.918;2024-03-07T02:07:32;79.07;;;52.17;;
22768;SDS011;13001;51.968;5.918;2024-03-07T02:10:00;82.25;;;51.33;;
22768;SDS011;13001;51.968;5.918;2024-03-07T02:12:29;84.17;;;51.73;;
22768;SDS011;13001;51.968;5.918;2024-03-07T02:14:57;81.87;;;51.10;;
22768;SDS011;13001;51.968;5.918;2024-03-07T02:17:26;83.05;;;51.10;;
22768;SDS011;13001;51.968;5.918;2024-03-07T02:19:53;80.77;;;50.55;;
22768;SDS011;13001;51.968;5.918;2024-03-07T02:22:21;82.67;;;50.28;;
22768;SDS011;13001;51.968;5.918;2024-03-07T02:24:50;78.57;;;50.95;;
22768;SDS011;13001;51.968;5.918;2024-03-07T02:27:17;84.00;;;50.60;;
22768;SDS011;13001;51.968;5.918;2024-03-07T02:29:45;77.30;;;49.38;;
22768;SDS011;13001;51.968;5.918;2024-03-07T02:32:13;77.30;;;49.50;;
22768;SDS011;13001;51.968;5.918;2024-03-07T02:34:40;75.87;;;48.85;;
22768;SDS011;13001;51.968;5.918;2024-03-07T02:37:09;75.08;;;48.20;;
22768;SDS011;13001;51.968;5.918;2024-03-07T02:39:36;73.37;;;47.93;;
22768;SDS011;13001;51.968;5.918;2024-03-07T02:42:04;77.85;;;48.50;;
22768;SDS011;13001;51.968;5.918;2024-03-07T02:44:32;76.67;;;48.48;;
22768;SDS011;13001;51.968;5.918;2024-03-07T02:47:03;80.62;;;48.48;;
22768;SDS011;13001;51.968;5.918;2024-03-07T02:49:32;77.73;;;49.10;;
22768;SDS011;13001;51.968;5.918;2024-03-07T02:52:00;75.35;;;47.62;;
22768;SDS011;13001;51.968;5.918;2024-03-07T02:54:27;75.15;;;48.25;;
22768;SDS011;13001;51.968;5.918;2024-03-07T02:56:55;77.53;;;47.48;;
22768;SDS011;13001;51.968;5.918;2024-03-07T02:59:22;78.35;;;47.23;;
22768;SDS011;13001;51.968;5.918;2024-03-07T03:01:50;77.53;;;47.57;;
22768;SDS011;13001;51.968;5.918;2024-03-07T03:04:17;73.75;;;48.13;;
22768;SDS011;13001;51.968;5.918;2024-03-07T03:06:45;74.20;;;48.85;;
22768;SDS011;13001;51.968;5.918;2024-03-07T03:09:12;73.83;;;47.27;;
22768;SDS011;13001;51.968;5.918;2024-03-07T03:11:42;77.78;;;48.45;;
22768;SDS011;13001;51.968;5.918;2024-03-07T03:14:12;75.60;;;48.75;;
22768;SDS011;13001;51.968;5.918;2024-03-07T03:16:43;80.10;;;48.55;;
22768;SDS011;13001;51.968;5.918;2024-03-07T03:19:11;79.37;;;49.38;;
22768;SDS011;13001;51.968;5.918;2024-03-07T03:21:38;78.45;;;48.92;;
22768;SDS011;13001;51.968;5.918;2024-03-07T03:24:06;75.47;;;49.33;;
22768;SDS011;13001;51.968;5.918;2024-03-07T03:26:34;76.92;;;48.92;;
22768;SDS011;13001;51.968;5.918;2024-03-07T03:29:01;75.75;;;49.18;;
22768;SDS011;13001;51.968;5.918;2024-03-07T03:31:29;80.55;;;48.38;;
22768;SDS011;13001;51.968;5.918;2024-03-07T03:33:57;79.10;;;50.43;;
22768;SDS011;13001;51.968;5.918;2024-03-07T03:36:24;78.60;;;50.35;;
22768;SDS011;13001;51.968;5.918;2024-03-07T03:38:52;72.22;;;47.90;;
22768;SDS011;13001;51.968;5.918;2024-03-07T03:41:19;75.85;;;48.75;;
22768;SDS011;13001;51.968;5.918;2024-03-07T03:43:48;75.95;;;48.55;;
22768;SDS011;13001;51.968;5.918;2024-03-07T03:46:16;77.87;;;49.48;;
22768;SDS011;13001;51.968;5.918;2024-03-07T03:48:44;76.53;;;49.47;;
22768;SDS011;13001;51.968;5.918;2024-03-07T03:51:11;74.00;;;49.13;;
22768;SDS011;13001;51.968;5.918;2024-03-07T03:53:41;78.57;;;48.20;;
22768;SDS011;13001;51.968;5.918;2024-03-07T03:56:09;80.17;;;49.48;;
22768;SDS011;13001;51.968;5.918;2024-03-07T03:58:41;76.28;;;48.65;;
22768;SDS011;13001;51.968;5.918;2024-03-07T04:01:09;79.12;;;49.93;;
22768;SDS011;13001;51.968;5.918;2024-03-07T04:03:38;83.80;;;50.12;;
22768;SDS011;13001;51.968;5.918;2024-03-07T04:06:06;75.78;;;48.55;;
22768;SDS011;13001;51.968;5.918;2024-03-07T04:08:33;82.00;;;48.80;;
22768;SDS011;13001;51.968;5.918;2024-03-07T04:11:02;76.55;;;48.68;;
22768;SDS011;13001;51.968;5.918;2024-03-07T04:13:33;74.75;;;49.03;;
22768;SDS011;13001;51.968;5.918;2024-03-07T04:16:00;78.40;;;49.35;;
22768;SDS011;13001;51.968;5.918;2024-03-07T04:18:28;76.80;;;49.23;;
22768;SDS011;13001;51.968;5.918;2024-03-07T04:20:55;77.60;;;49.80;;
22768;SDS011;13001;51.968;5.918;2024-03-07T04:23:23;82.22;;;50.33;;
22768;SDS011;13001;51.968;5.918;2024-03-07T04:25:51;81.63;;;50.17;;
22768;SDS011;13001;51.968;5.918;2024-03-07T04:28:19;81.10;;;50.03;;
22768;SDS011;13001;51.968;5.918;2024-03-07T04:30:48;75.37;;;49.45;;
22768;SDS011;13001;51.968;5.918;2024-03-07T04:33:18;79.55;;;51.33;;
22768;SDS011;13001;51.968;5.918;2024-03-07T04:35:46;79.60;;;49.70;;
22768;SDS011;13001;51.968;5.918;2024-03-07T04:38:15;80.50;;;50.13;;
22768;SDS011;13001;51.968;5.918;2024-03-07T04:40:43;74.58;;;49.38;;
22768;SDS011;13001;51.968;5.918;2024-03-07T04:43:10;82.45;;;50.05;;
22768;SDS011;13001;51.968;5.918;2024-03-07T04:45:38;80.35;;;50.17;;
22768;SDS011;13001;51.968;5.918;2024-03-07T04:48:05;77.58;;;50.15;;
22768;SDS011;13001;51.968;5.918;2024-03-07T04:50:35;79.83;;;49.73;;
22768;SDS011;13001;51.968;5.918;2024-03-07T04:53:03;75.00;;;50.40;;
22768;SDS011;13001;51.968;5.918;2024-03-07T04:55:31;76.12;;;49.75;;
22768;SDS011;13001;51.968;5.918;2024-03-07T04:57:59;79.80;;;50.50;;
22768;SDS011;13001;51.968;5.918;2024-03-07T05:00:26;77.12;;;49.08;;
22768;SDS011;13001;51.968;5.918;2024-03-07T05:02:55;80.12;;;50.10;;
22768;SDS011;13001;51.968;5.918;2024-03-07T05:05:23;73.37;;;48.68;;
22768;SDS011;13001;51.968;5.918;2024-03-07T05:07:52;74.50;;;49.08;;
22768;SDS011;13001;51.968;5.918;2024-03-07T05:10:21;74.77;;;49.03;;
22768;SDS011;13001;51.968;5.918;2024-03-07T05:12:49;75.72;;;48.65;;
22768;SDS011;13001;51.968;5.918;2024-03-07T05:15:16;73.57;;;47.93;;
22768;SDS011;13001;51.968;5.918;2024-03-07T05:17:44;72.47;;;47.23;;
22768;SDS011;13001;51.968;5.918;2024-03-07T05:20:11;79.95;;;48.87;;
22768;SDS011;13001;51.968;5.918;2024-03-07T05:22:42;71.75;;;47.75;;
22768;SDS011;13001;51.968;5.918;2024-03-07T05:25:16;74.10;;;47.70;;
22768;SDS011;13001;51.968;5.918;2024-03-07T05:27:45;74.58;;;46.58;;
22768;SDS011;13001;51.968;5.918;2024-03-07T05:30:14;79.03;;;48.35;;
22768;SDS011;13001;51.968;5.918;2024-03-07T05:32:43;72.77;;;47.00;;
22768;SDS011;13001;51.968;5.918;2024-03-07T05:35:10;75.17;;;46.68;;
22768;SDS011;13001;51.968;5.918;2024-03-07T05:37:38;70.25;;;46.28;;
22768;SDS011;13001;51.968;5.918;2024-03-07T05:40:07;72.90;;;45.75;;
22768;SDS011;13001;51.968;5.918;2024-03-07T05:42:35;71.47;;;45.67;;
22768;SDS011;13001;51.968;5.918;2024-03-07T05:45:02;70.27;;;45.30;;
22768;SDS011;13001;51.968;5.918;2024-03-07T05:47:32;66.53;;;44.70;;
22768;SDS011;13001;51.968;5.918;2024-03-07T05:50:00;66.60;;;44.57;;
22768;SDS011;13001;51.968;5.918;2024-03-07T05:52:29;66.28;;;45.12;;
22768;SDS011;13001;51.968;5.918;2024-03-07T05:54:57;66.20;;;44.13;;
22768;SDS011;13001;51.968;5.918;2024-03-07T05:57:25;69.72;;;44.15;;
22768;SDS011;13001;51.968;5.918;2024-03-07T05:59:52;71.93;;;44.37;;
22768;SDS011;13001;51.968;5.918;2024-03-07T06:02:20;64.65;;;42.20;;
22768;SDS011;13001;51.968;5.918;2024-03-07T06:04:47;63.48;;;42.88;;
22768;SDS011;13001;51.968;5.918;2024-03-07T06:07:15;62.35;;;41.30;;
22768;SDS011;13001;51.968;5.918;2024-03-07T06:09:42;60.43;;;40.48;;
22768;SDS011;13001;51.968;5.918;2024-03-07T06:12:10;60.30;;;41.15;;
22768;SDS011;13001;51.968;5.918;2024-03-07T06:14:38;58.63;;;39.70;;
22768;SDS011;13001;51.968;5.918;2024-03-07T06:17:05;60.45;;;40.17;;
22768;SDS011;13001;51.968;5.918;2024-03-07T06:19:33;61.30;;;39.47;;
22768;SDS011;13001;51.968;5.918;2024-03-07T06:22:00;57.33;;;38.73;;
22768;SDS011;13001;51.968;5.918;2024-03-07T06:24:29;56.65;;;38.28;;
22768;SDS011;13001;51.968;5.918;2024-03-07T06:26:57;55.63;;;37.93;;
22768;SDS011;13001;51.968;5.918;2024-03-07T06:29:29;54.67;;;36.80;;
22768;SDS011;13001;51.968;5.918;2024-03-07T06:31:57;51.93;;;36.00;;
22768;SDS011;13001;51.968;5.918;2024-03-07T06:34:26;50.83;;;35.38;;
22768;SDS011;13001;51.968;5.918;2024-03-07T06:36:55;52.17;;;34.00;;
22768;SDS011;13001;51.968;5.918;2024-03-07T06:39:22;51.20;;;33.50;;
22768;SDS011;13001;51.968;5.918;2024-03-07T06:41:51;48.33;;;32.98;;
22768;SDS011;13001;51.968;5.918;2024-03-07T06:44:18;49.67;;;31.87;;
22768;SDS011;13001;51.968;5.918;2024-03-07T06:46:47;47.03;;;30.30;;
22768;SDS011;13001;51.968;5.918;2024-03-07T06:49:15;46.53;;;30.90;;
22768;SDS011;13001;51.968;5.918;2024-03-07T06:51:42;42.00;;;29.52;;
22768;SDS011;13001;51.968;5.918;2024-03-07T06:54:10;43.02;;;28.50;;
22768;SDS011;13001;51.968;5.918;2024-03-07T06:56:37;38.83;;;27.77;;
22768;SDS011;13001;51.968;5.918;2024-03-07T06:59:06;39.95;;;27.35;;
22768;SDS011;13001;51.968;5.918;2024-03-07T07:01:34;39.45;;;25.77;;
22768;SDS011;13001;51.968;5.918;2024-03-07T07:04:02;36.70;;;24.85;;
22768;SDS011;13001;51.968;5.918;2024-03-07T07:06:30;36.35;;;23.83;;
22768;SDS011;13001;51.968;5.918;2024-03-07T07:08:57;33.20;;;23.97;;
22768;SDS011;13001;51.968;5.918;2024-03-07T07:11:27;39.00;;;24.63;;
22768;SDS011;13001;51.968;5.918;2024-03-07T07:13:54;34.80;;;23.38;;
22768;SDS011;13001;51.968;5.918;2024-03-07T07:16:22;34.45;;;23.07;;
22768;SDS011;13001;51.968;5.918;2024-03-07T07:18:50;35.90;;;23.13;;
22768;SDS011;13001;51.968;5.918;2024-03-07T07:21:18;32.53;;;23.45;;
22768;SDS011;13001;51.968;5.918;2024-03-07T07:23:47;35.78;;;24.45;;
22768;SDS011;13001;51.968;5.918;2024-03-07T07:26:14;36.73;;;24.12;;
22768;SDS011;13001;51.968;5.918;2024-03-07T07:28:42;34.73;;;24.37;;
22768;SDS011;13001;51.968;5.918;2024-03-07T07:31:10;33.40;;;24.10;;
22768;SDS011;13001;51.968;5.918;2024-03-07T07:33:37;33.38;;;24.23;;
22768;SDS011;13001;51.968;5.918;2024-03-07T07:36:05;35.73;;;24.30;;
22768;SDS011;13001;51.968;5.918;2024-03-07T07:38:32;34.40;;;21.65;;
22768;SDS011;13001;51.968;5.918;2024-03-07T07:41:00;30.60;;;20.75;;
22768;SDS011;13001;51.968;5.918;2024-03-07T07:43:28;33.75;;;20.57;;
22768;SDS011;13001;51.968;5.918;2024-03-07T07:45:56;29.42;;;20.43;;
22768;SDS011;13001;51.968;5.918;2024-03-07T07:48:23;28.95;;;19.82;;
22768;SDS011;13001;51.968;5.918;2024-03-07T07:50:51;28.27;;;19.70;;
22768;SDS011;13001;51.968;5.918;2024-03-07T07:53:18;26.23;;;19.87;;
22768;SDS011;13001;51.968;5.918;2024-03-07T07:55:46;26.33;;;18.82;;
22768;SDS011;13001;51.968;5.918;2024-03-07T07:58:14;26.50;;;19.00;;
22768;SDS011;13001;51.968;5.918;2024-03-07T08:00:42;25.68;;;18.12;;
22768;SDS011;13001;51.968;5.918;2024-03-07T08:03:10;26.85;;;17.67;;
22768;SDS011;13001;51.968;5.918;2024-03-07T08:05:39;29.30;;;18.92;;
22768;SDS011;13001;51.968;5.918;2024-03-07T08:08:08;25.70;;;17.17;;
22768;SDS011;13001;51.968;5.918;2024-03-07T08:10:38;25.00;;;18.02;;
22768;SDS011;13001;51.968;5.918;2024-03-07T08:13:09;24.27;;;17.77;;
22768;SDS011;13001;51.968;5.918;2024-03-07T08:15:39;26.37;;;17.10;;
22768;SDS011;13001;51.968;5.918;2024-03-07T08:18:07;25.57;;;17.37;;
22768;SDS011;13001;51.968;5.918;2024-03-07T08:20:35;22.37;;;16.00;;
22768;SDS011;13001;51.968;5.918;2024-03-07T08:23:03;24.57;;;16.95;;
22768;SDS011;13001;51.968;5.918;2024-03-07T08:25:30;19.10;;;15.43;;
22768;SDS011;13001;51.968;5.918;2024-03-07T08:27:58;22.30;;;15.23;;
22768;SDS011;13001;51.968;5.918;2024-03-07T08:30:26;21.55;;;15.43;;
22768;SDS011;13001;51.968;5.918;2024-03-07T08:32:55;23.38;;;15.30;;
22768;SDS011;13001;51.968;5.918;2024-03-07T08:35:23;21.52;;;14.80;;
22768;SDS011;13001;51.968;5.918;2024-03-07T08:37:53;22.35;;;15.00;;
22768;SDS011;13001;51.968;5.918;2024-03-07T08:40:22;22.60;;;15.48;;
22768;SDS011;13001;51.968;5.918;2024-03-07T08:42:51;22.80;;;15.75;;
22768;SDS011;13001;51.968;5.918;2024-03-07T08:45:22;19.62;;;14.28;;
22768;SDS011;13001;51.968;5.918;2024-03-07T08:47:50;22.37;;;14.73;;
22768;SDS011;13001;51.968;5.918;2024-03-07T08:50:21;21.57;;;14.73;;
22768;SDS011;13001;51.968;5.918;2024-03-07T08:52:49;18.62;;;14.35;;
22768;SDS011;13001;51.968;5.918;2024-03-07T08:55:21;18.48;;;14.40;;
22768;SDS011;13001;51.968;5.918;2024-03-07T08:57:50;20.80;;;14.40;;
22768;SDS011;13001;51.968;5.918;2024-03-07T09:00:18;18.97;;;14.57;;
22768;SDS011;13001;51.968;5.918;2024-03-07T09:02:56;20.43;;;14.38;;
22768;SDS011;13001;51.968;5.918;2024-03-07T09:05:24;21.52;;;14.20;;
22768;SDS011;13001;51.968;5.918;2024-03-07T09:07:53;18.85;;;14.00;;
22768;SDS011;13001;51.968;5.918;2024-03-07T09:10:21;18.67;;;13.75;;
22768;SDS011;13001;51.968;5.918;2024-03-07T09:12:51;19.48;;;13.75;;
22768;SDS011;13001;51.968;5.918;2024-03-07T09:15:19;19.82;;;14.65;;
22768;SDS011;13001;51.968;5.918;2024-03-07T09:17:49;20.27;;;13.80;;
22768;SDS011;13001;51.968;5.918;2024-03-07T09:20:18;19.42;;;14.20;;
22768;SDS011;13001;51.968;5.918;2024-03-07T09:22:47;20.82;;;14.80;;
22768;SDS011;13001;51.968;5.918;2024-03-07T09:25:16;18.57;;;14.55;;
22768;SDS011;13001;51.968;5.918;2024-03-07T09:27:44;18.37;;;14.90;;
22768;SDS011;13001;51.968;5.918;2024-03-07T09:30:12;20.77;;;14.90;;
22768;SDS011;13001;51.968;5.918;2024-03-07T09:32:42;20.80;;;14.83;;
22768;SDS011;13001;51.968;5.918;2024-03-07T09:35:09;21.63;;;15.50;;
22768;SDS011;13001;51.968;5.918;2024-03-07T09:37:42;20.07;;;13.73;;
22768;SDS011;13001;51.968;5.918;2024-03-07T09:42:47;20.35;;;14.20;;
22768;SDS011;13001;51.968;5.918;2024-03-07T09:45:18;16.97;;;12.77;;
22768;SDS011;13001;51.968;5.918;2024-03-07T09:47:47;20.00;;;13.73;;
22768;SDS011;13001;51.968;5.918;2024-03-07T09:50:17;22.63;;;14.00;;
22768;SDS011;13001;51.968;5.918;2024-03-07T09:52:48;20.00;;;13.67;;
22768;SDS011;13001;51.968;5.918;2024-03-07T09:55:17;21.30;;;13.80;;
22768;SDS011;13001;51.968;5.918;2024-03-07T09:57:47;20.43;;;13.63;;
22768;SDS011;13001;51.968;5.918;2024-03-07T10:00:16;22.13;;;14.40;;
22768;SDS011;13001;51.968;5.918;2024-03-07T10:02:56;20.77;;;13.37;;
22768;SDS011;13001;51.968;5.918;2024-03-07T10:05:26;21.43;;;13.37;;
22768;SDS011;13001;51.968;5.918;2024-03-07T10:07:55;19.47;;;14.30;;
22768;SDS011;13001;51.968;5.918;2024-03-07T10:10:23;23.23;;;13.77;;
22768;SDS011;13001;51.968;5.918;2024-03-07T10:12:52;23.37;;;13.60;;
22768;SDS011;13001;51.968;5.918;2024-03-07T10:17:48;19.63;;;14.67;;
22768;SDS011;13001;51.968;5.918;2024-03-07T10:20:18;25.93;;;14.73;;
22768;SDS011;13001;51.968;5.918;2024-03-07T10:22:50;18.33;;;13.87;;
22768;SDS011;13001;51.968;5.918;2024-03-07T10:25:18;21.63;;;14.97;;
22768;SDS011;13001;51.968;5.918;2024-03-07T10:27:50;32.17;;;14.60;;
22768;SDS011;13001;51.968;5.918;2024-03-07T10:30:18;21.63;;;14.17;;
22768;SDS011;13001;51.968;5.918;2024-03-07T10:32:47;23.73;;;15.37;;
22768;SDS011;13001;51.968;5.918;2024-03-07T10:35:19;22.07;;;14.83;;
22768;SDS011;13001;51.968;5.918;2024-03-07T10:37:53;22.30;;;14.77;;
22768;SDS011;13001;51.968;5.918;2024-03-07T10:40:22;21.97;;;14.53;;
22768;SDS011;13001;51.968;5.918;2024-03-07T10:42:51;22.33;;;14.70;;
22768;SDS011;13001;51.968;5.918;2024-03-07T10:45:22;20.83;;;14.43;;
22768;SDS011;13001;51.968;5.918;2024-03-07T10:47:53;23.63;;;14.90;;
22768;SDS011;13001;51.968;5.918;2024-03-07T10:50:38;25.50;;;15.83;;
22768;SDS011;13001;51.968;5.918;2024-03-07T10:53:24;25.50;;;16.77;;
22768;SDS011;13001;51.968;5.918;2024-03-07T10:56:06;23.83;;;16.55;;
22768;SDS011;13001;51.968;5.918;2024-03-07T11:01:07;23.20;;;16.05;;
22768;SDS011;13001;51.968;5.918;2024-03-07T11:03:38;22.22;;;15.85;;
22768;SDS011;13001;51.968;5.918;2024-03-07T11:06:10;23.57;;;16.02;;
22768;SDS011;13001;51.968;5.918;2024-03-07T11:08:37;24.80;;;16.32;;
22768;SDS011;13001;51.968;5.918;2024-03-07T11:11:05;23.55;;;16.27;;
22768;SDS011;13001;51.968;5.918;2024-03-07T11:13:34;23.90;;;16.48;;
22768;SDS011;13001;51.968;5.918;2024-03-07T11:16:03;24.10;;;16.57;;
22768;SDS011;13001;51.968;5.918;2024-03-07T11:18:32;25.53;;;16.90;;
22768;SDS011;13001;51.968;5.918;2024-03-07T11:21:00;27.32;;;16.80;;
22768;SDS011;13001;51.968;5.918;2024-03-07T11:23:29;25.62;;;16.32;;
22768;SDS011;13001;51.968;5.918;2024-03-07T11:26:07;26.40;;;17.12;;
22768;SDS011;13001;51.968;5.918;2024-03-07T11:28:42;24.67;;;16.73;;
22768;SDS011;13001;51.968;5.918;2024-03-07T11:31:13;25.20;;;16.37;;
22768;SDS011;13001;51.968;5.918;2024-03-07T11:34:15;25.80;;;17.25;;
22768;SDS011;13001;51.968;5.918;2024-03-07T11:36:48;24.90;;;16.30;;
22768;SDS011;13001;51.968;5.918;2024-03-07T11:42:09;26.55;;;16.30;;
22768;SDS011;13001;51.968;5.918;2024-03-07T11:44:59;24.43;;;16.03;;
22768;SDS011;13001;51.968;5.918;2024-03-07T11:47:38;22.50;;;15.98;;
22768;SDS011;13001;51.968;5.918;2024-03-07T11:50:08;24.77;;;15.80;;
22768;SDS011;13001;51.968;5.918;2024-03-07T11:52:39;24.05;;;15.63;;
22768;SDS011;13001;51.968;5.918;2024-03-07T11:55:10;20.52;;;15.10;;
22768;SDS011;13001;51.968;5.918;2024-03-07T11:57:39;23.38;;;15.83;;
22768;SDS011;13001;51.968;5.918;2024-03-07T12:00:09;21.80;;;15.50;;
22768;SDS011;13001;51.968;5.918;2024-03-07T12:02:44;21.65;;;15.45;;
22768;SDS011;13001;51.968;5.918;2024-03-07T12:05:13;22.62;;;14.93;;
22768;SDS011;13001;51.968;5.918;2024-03-07T12:07:43;23.27;;;15.25;;
22768;SDS011;13001;51.968;5.918;2024-03-07T12:10:12;22.62;;;15.40;;
22768;SDS011;13001;51.968;5.918;2024-03-07T12:12:42;22.62;;;14.80;;
22768;SDS011;13001;51.968;5.918;2024-03-07T12:15:09;21.05;;;13.48;;
22768;SDS011;13001;51.968;5.918;2024-03-07T12:17:46;22.02;;;14.90;;
22768;SDS011;13001;51.968;5.918;2024-03-07T12:20:15;24.60;;;14.28;;
22768;SDS011;13001;51.968;5.918;2024-03-07T12:22:57;20.17;;;14.13;;
22768;SDS011;13001;51.968;5.918;2024-03-07T12:25:27;20.27;;;13.85;;
22768;SDS011;13001;51.968;5.918;2024-03-07T12:28:00;20.97;;;14.05;;
22768;SDS011;13001;51.968;5.918;2024-03-07T12:30:34;21.80;;;14.75;;
22768;SDS011;13001;51.968;5.918;2024-03-07T12:33:04;20.25;;;14.75;;
22768;SDS011;13001;51.968;5.918;2024-03-07T12:35:33;19.12;;;14.23;;
22768;SDS011;13001;51.968;5.918;2024-03-07T12:38:01;23.40;;;14.60;;
22768;SDS011;13001;51.968;5.918;2024-03-07T12:40:29;22.00;;;14.60;;
22768;SDS011;13001;51.968;5.918;2024-03-07T12:42:58;23.27;;;15.25;;
22768;SDS011;13001;51.968;5.918;2024-03-07T12:45:27;23.85;;;15.32;;
22768;SDS011;13001;51.968;5.918;2024-03-07T12:47:57;21.00;;;16.10;;
22768;SDS011;13001;51.968;5.918;2024-03-07T12:50:28;22.02;;;15.88;;
22768;SDS011;13001;51.968;5.918;2024-03-07T12:52:55;24.00;;;16.37;;
22768;SDS011;13001;51.968;5.918;2024-03-07T12:55:23;22.85;;;16.62;;
22768;SDS011;13001;51.968;5.918;2024-03-07T12:57:50;22.98;;;16.75;;
22768;SDS011;13001;51.968;5.918;2024-03-07T13:00:18;25.08;;;17.15;;
22768;SDS011;13001;51.968;5.918;2024-03-07T13:02:48;23.38;;;16.97;;
22768;SDS011;13001;51.968;5.918;2024-03-07T13:05:16;23.33;;;16.47;;
22768;SDS011;13001;51.968;5.918;2024-03-07T13:07:48;24.07;;;17.30;;
22768;SDS011;13001;51.968;5.918;2024-03-07T13:10:16;22.48;;;17.20;;
22768;SDS011;13001;51.968;5.918;2024-03-07T13:12:45;23.20;;;17.10;;
22768;SDS011;13001;51.968;5.918;2024-03-07T13:15:15;26.10;;;17.12;;
22768;SDS011;13001;51.968;5.918;2024-03-07T13:17:43;25.65;;;17.15;;
22768;SDS011;13001;51.968;5.918;2024-03-07T13:20:11;21.60;;;16.35;;
22768;SDS011;13001;51.968;5.918;2024-03-07T13:22:43;25.12;;;18.17;;
22768;SDS011;13001;51.968;5.918;2024-03-07T13:25:20;25.70;;;17.30;;
22768;SDS011;13001;51.968;5.918;2024-03-07T13:28:00;21.90;;;16.48;;
22768;SDS011;13001;51.968;5.918;2024-03-07T13:30:39;23.35;;;16.82;;
22768;SDS011;13001;51.968;5.918;2024-03-07T13:33:03;25.45;;;17.82;;
22768;SDS011;13001;51.968;5.918;2024-03-07T13:35:34;23.32;;;16.82;;
22768;SDS011;13001;51.968;5.918;2024-03-07T13:38:01;21.95;;;16.82;;
22768;SDS011;13001;51.968;5.918;2024-03-07T13:40:29;24.07;;;16.75;;
22768;SDS011;13001;51.968;5.918;2024-03-07T13:43:00;21.73;;;16.60;;
22768;SDS011;13001;51.968;5.918;2024-03-07T13:45:29;24.47;;;16.48;;
22768;SDS011;13001;51.968;5.918;2024-03-07T13:47:59;23.70;;;15.72;;
22768;SDS011;13001;51.968;5.918;2024-03-07T13:50:30;23.12;;;16.67;;
22768;SDS011;13001;51.968;5.918;2024-03-07T13:52:59;22.80;;;16.25;;
22768;SDS011;13001;51.968;5.918;2024-03-07T14:06:11;19.03;;;14.30;;
22768;SDS011;13001;51.968;5.918;2024-03-07T14:17:22;18.60;;;14.43;;
22768;SDS011;13001;51.968;5.918;2024-03-07T14:23:04;18.93;;;12.57;;
22768;SDS011;13001;51.968;5.918;2024-03-07T14:31:11;22.93;;;14.57;;
22768;SDS011;13001;51.968;5.918;2024-03-07T14:34:05;26.90;;;15.33;;
22768;SDS011;13001;51.968;5.918;2024-03-07T14:36:46;21.33;;;14.40;;
22768;SDS011;13001;51.968;5.918;2024-03-07T14:39:18;23.70;;;15.53;;
22768;SDS011;13001;51.968;5.918;2024-03-07T14:41:50;22.83;;;14.93;;
22768;SDS011;13001;51.968;5.918;2024-03-07T14:44:22;23.20;;;16.03;;
22768;SDS011;13001;51.968;5.918;2024-03-07T14:46:54;20.37;;;14.00;;
22768;SDS011;13001;51.968;5.918;2024-03-07T14:49:25;22.00;;;15.60;;
22768;SDS011;13001;51.968;5.918;2024-03-07T14:51:53;20.60;;;14.20;;
22768;SDS011;13001;51.968;5.918;2024-03-07T14:54:26;20.70;;;14.50;;
22768;SDS011;13001;51.968;5.918;2024-03-07T14:56:56;24.97;;;15.07;;
22768;SDS011;13001;51.968;5.918;2024-03-07T14:59:23;23.60;;;16.00;;
22768;SDS011;13001;51.968;5.918;2024-03-07T15:01:53;21.27;;;15.33;;
22768;SDS011;13001;51.968;5.918;2024-03-07T15:04:21;21.47;;;15.23;;
22768;SDS011;13001;51.968;5.918;2024-03-07T15:06:49;20.27;;;15.00;;
22768;SDS011;13001;51.968;5.918;2024-03-07T15:09:18;21.30;;;13.67;;
22768;SDS011;13001;51.968;5.918;2024-03-07T15:11:45;20.77;;;14.70;;
22768;SDS011;13001;51.968;5.918;2024-03-07T15:14:13;19.83;;;13.83;;